createdAt,value
2022-11-23T00:00:13.142Z,7.80
2022-11-23T00:02:41.441Z,7.70
2022-11-23T00:05:10.735Z,7.70
2022-11-23T00:07:39.168Z,7.80
2022-11-23T00:10:08.991Z,7.80
2022-11-23T00:12:37.030Z,7.90
2022-11-23T00:15:07.731Z,7.90
2022-11-23T00:17:36.425Z,7.90
2022-11-23T00:20:12.110Z,7.80
2022-11-23T00:22:43.913Z,7.90
2022-11-23T00:25:14.805Z,7.90
2022-11-23T00:27:43.049Z,7.90
2022-11-23T00:30:14.303Z,7.80
2022-11-23T00:32:45.499Z,7.80
2022-11-23T00:35:19.273Z,7.80
2022-11-23T00:37:49.792Z,7.70
2022-11-23T00:40:17.878Z,7.80
2022-11-23T00:42:45.956Z,7.70
2022-11-23T00:45:16.831Z,7.70
2022-11-23T00:47:45.870Z,7.70
2022-11-23T00:50:14.262Z,7.60
2022-11-23T00:52:42.336Z,7.60
2022-11-23T00:55:11.014Z,7.60
2022-11-23T00:57:40.046Z,7.60
2022-11-23T01:00:09.406Z,7.60
2022-11-23T01:02:49.053Z,7.70
2022-11-23T01:05:17.469Z,7.70
2022-11-23T01:07:45.509Z,7.70
2022-11-23T01:10:14.063Z,7.70
2022-11-23T01:12:42.688Z,7.70
2022-11-23T01:15:11.127Z,7.70
2022-11-23T01:17:40.600Z,7.70
2022-11-23T01:20:10.733Z,7.60
2022-11-23T01:22:38.818Z,7.70
2022-11-23T01:25:08.842Z,7.70
2022-11-23T01:27:36.897Z,7.70
2022-11-23T01:30:05.746Z,7.80
2022-11-23T01:32:34.365Z,7.80
2022-11-23T01:35:04.474Z,7.80
2022-11-23T01:37:32.514Z,7.80
2022-11-23T01:40:01.526Z,7.80
2022-11-23T01:42:44.195Z,7.80
2022-11-23T01:45:37.653Z,7.70
2022-11-23T01:48:11.057Z,7.80
2022-11-23T01:50:44.354Z,7.80
2022-11-23T01:53:12.369Z,7.80
2022-11-23T01:55:41.105Z,7.80
2022-11-23T01:58:11.668Z,7.70
2022-11-23T02:00:39.690Z,7.70
2022-11-23T02:03:08.390Z,7.70
2022-11-23T02:05:41.419Z,7.70
2022-11-23T02:08:12.990Z,7.70
2022-11-23T02:10:41.140Z,7.80
2022-11-23T02:13:12.874Z,7.80
2022-11-23T02:15:41.546Z,7.80
2022-11-23T02:18:15.486Z,7.80
2022-11-23T02:20:45.062Z,7.80
2022-11-23T02:23:26.198Z,7.80
2022-11-23T02:26:05.801Z,7.80
2022-11-23T02:28:37.436Z,7.80
2022-11-23T02:31:05.837Z,7.80
2022-11-23T02:33:34.530Z,7.90
2022-11-23T02:36:03.649Z,7.90
2022-11-23T02:38:34.335Z,7.90
2022-11-23T02:41:03.948Z,7.80
2022-11-23T02:43:33.788Z,7.80
2022-11-23T02:46:05.153Z,7.80
2022-11-23T02:48:39.298Z,7.80
2022-11-23T02:51:07.919Z,7.80
2022-11-23T02:53:36.626Z,7.70
2022-11-23T02:56:07.676Z,7.70
2022-11-23T02:58:35.841Z,7.70
2022-11-23T03:01:04.368Z,7.70
2022-11-23T03:03:32.692Z,7.70
2022-11-23T03:06:01.617Z,7.70
2022-11-23T03:08:29.594Z,7.70
2022-11-23T03:10:57.695Z,7.70
2022-11-23T03:13:27.626Z,7.70
2022-11-23T03:15:56.992Z,7.80
2022-11-23T03:18:25.203Z,7.80
2022-11-23T03:20:53.546Z,7.80
2022-11-23T03:23:21.948Z,7.80
2022-11-23T03:25:56.587Z,7.70
2022-11-23T03:28:24.767Z,7.70
2022-11-23T03:30:55.286Z,7.60
2022-11-23T03:33:23.524Z,7.60
2022-11-23T03:35:51.771Z,7.60
2022-11-23T03:38:20.638Z,7.50
2022-11-23T03:40:48.838Z,7.40
2022-11-23T03:43:17.324Z,7.40
2022-11-23T03:45:45.303Z,7.40
2022-11-23T03:48:15.126Z,7.30
2022-11-23T03:50:43.289Z,7.30
2022-11-23T03:53:11.483Z,7.20
2022-11-23T03:55:40.034Z,7.20
2022-11-23T03:58:08.127Z,7.10
2022-11-23T04:00:36.495Z,7.20
2022-11-23T04:03:04.990Z,7.30
2022-11-23T04:05:34.787Z,7.30
2022-11-23T04:08:02.952Z,7.30
2022-11-23T04:10:31.064Z,7.30
2022-11-23T04:12:59.275Z,7.40
2022-11-23T04:15:27.599Z,7.50
2022-11-23T04:17:56.049Z,7.50
2022-11-23T04:20:24.067Z,7.60
2022-11-23T04:22:53.567Z,7.60
2022-11-23T04:25:21.826Z,7.60
2022-11-23T04:27:50.119Z,7.60
2022-11-23T04:30:21.530Z,7.70
2022-11-23T04:32:49.558Z,7.70
2022-11-23T04:35:17.832Z,7.70
2022-11-23T04:37:46.024Z,7.70
2022-11-23T04:40:16.036Z,7.70
2022-11-23T04:42:44.424Z,7.70
2022-11-23T04:45:12.623Z,7.70
2022-11-23T04:47:40.760Z,7.60
2022-11-23T04:50:09.440Z,7.60
2022-11-23T04:52:37.593Z,7.60
2022-11-23T04:55:06.262Z,7.60
2022-11-23T04:57:36.131Z,7.60
2022-11-23T05:00:05.110Z,7.60
2022-11-23T05:02:33.276Z,7.50
2022-11-23T05:05:01.454Z,7.50
2022-11-23T05:07:29.695Z,7.60
2022-11-23T05:09:57.803Z,7.50
2022-11-23T05:12:25.870Z,7.50
2022-11-23T05:14:55.881Z,7.40
2022-11-23T05:17:27.698Z,7.40
2022-11-23T05:19:56.254Z,7.50
2022-11-23T05:22:24.566Z,7.40
2022-11-23T05:24:52.755Z,7.40
2022-11-23T05:27:20.780Z,7.30
2022-11-23T05:29:48.955Z,7.20
2022-11-23T05:32:20.015Z,7.20
2022-11-23T05:34:48.265Z,7.20
2022-11-23T05:37:16.480Z,7.10
2022-11-23T05:39:44.617Z,7.10
2022-11-23T05:42:12.868Z,7.10
2022-11-23T05:44:41.076Z,7.00
2022-11-23T05:47:09.547Z,7.00
2022-11-23T05:49:40.398Z,7.00
2022-11-23T05:52:08.670Z,7.00
2022-11-23T05:54:38.580Z,6.90
2022-11-23T05:57:06.742Z,6.90
2022-11-23T05:59:35.236Z,6.90
2022-11-23T06:02:03.540Z,6.90
2022-11-23T06:04:31.767Z,6.80
2022-11-23T06:07:01.545Z,6.80
2022-11-23T06:09:29.881Z,6.80
2022-11-23T06:11:59.644Z,6.80
2022-11-23T06:14:27.732Z,6.80
2022-11-23T06:16:55.839Z,6.70
2022-11-23T06:19:24.250Z,6.60
2022-11-23T06:21:52.342Z,6.60
2022-11-23T06:24:22.097Z,6.50
2022-11-23T06:26:52.706Z,6.50
2022-11-23T06:29:21.260Z,6.50
2022-11-23T06:31:49.373Z,6.40
2022-11-23T06:34:17.643Z,6.50
2022-11-23T06:36:45.798Z,6.40
2022-11-23T06:39:16.016Z,6.40
2022-11-23T06:41:45.425Z,6.40
2022-11-23T06:44:13.721Z,6.40
2022-11-23T06:46:41.876Z,6.30
2022-11-23T06:49:11.322Z,6.40
2022-11-23T06:51:40.095Z,6.30
2022-11-23T06:54:08.798Z,6.30
2022-11-23T06:56:37.123Z,6.30
2022-11-23T06:59:06.711Z,6.30
2022-11-23T07:01:35.256Z,6.30
2022-11-23T07:04:03.457Z,6.30
2022-11-23T07:06:31.768Z,6.30
2022-11-23T07:09:00.049Z,6.30
2022-11-23T07:11:28.307Z,6.40
2022-11-23T07:13:56.742Z,6.30
2022-11-23T07:16:26.473Z,6.40
2022-11-23T07:18:54.699Z,6.40
2022-11-23T07:21:22.825Z,6.40
2022-11-23T07:23:50.877Z,6.40
2022-11-23T07:26:19.338Z,6.40
2022-11-23T07:28:47.890Z,6.40
2022-11-23T07:31:16.542Z,6.50
2022-11-23T07:33:46.871Z,6.50
2022-11-23T07:36:15.582Z,6.60
2022-11-23T07:38:43.649Z,6.60
2022-11-23T07:41:11.879Z,6.60
2022-11-23T07:43:40.073Z,6.70
2022-11-23T07:46:07.983Z,6.80
2022-11-23T07:48:36.754Z,6.80
2022-11-23T07:51:06.582Z,6.80
2022-11-23T07:53:36.343Z,6.90
2022-11-23T07:56:04.389Z,7.00
2022-11-23T07:58:33.881Z,7.00
2022-11-23T08:01:02.016Z,7.00
2022-11-23T08:03:30.538Z,7.00
2022-11-23T08:05:58.869Z,7.10
2022-11-23T08:08:28.542Z,7.20
2022-11-23T08:10:56.557Z,7.10
2022-11-23T08:13:24.704Z,7.00
2022-11-23T08:15:55.484Z,7.00
2022-11-23T08:18:24.852Z,7.10
2022-11-23T08:20:52.953Z,7.10
2022-11-23T08:23:21.481Z,7.30
2022-11-23T08:25:51.744Z,7.40
2022-11-23T08:28:20.143Z,7.40
2022-11-23T08:30:49.196Z,7.30
2022-11-23T08:33:17.415Z,7.20
2022-11-23T08:35:45.576Z,7.20
2022-11-23T08:38:14.264Z,7.20
2022-11-23T08:40:42.412Z,7.30
2022-11-23T08:43:12.892Z,7.40
2022-11-23T08:45:41.187Z,7.60
2022-11-23T08:48:09.213Z,7.90
2022-11-23T08:50:37.434Z,8.00
2022-11-23T08:53:05.698Z,8.10
2022-11-23T08:55:34.310Z,8.20
2022-11-23T08:58:02.639Z,8.20
2022-11-23T09:00:32.515Z,8.30
2022-11-23T09:03:00.970Z,8.30
2022-11-23T09:05:29.875Z,8.40
2022-11-23T09:08:01.611Z,8.60
2022-11-23T09:10:30.032Z,8.70
2022-11-23T09:12:58.254Z,9.00
2022-11-23T09:15:26.578Z,9.00
2022-11-23T09:17:56.160Z,9.10
2022-11-23T09:20:24.428Z,9.50
2022-11-23T09:22:56.109Z,10.00
2022-11-23T09:25:25.111Z,10.30
2022-11-23T09:27:59.607Z,10.80
2022-11-23T09:30:28.230Z,11.10
2022-11-23T09:32:58.241Z,11.30
2022-11-23T09:35:26.452Z,10.90
2022-11-23T09:37:58.313Z,11.00
2022-11-23T09:40:31.536Z,10.80
2022-11-23T09:43:16.817Z,10.40
2022-11-23T09:45:50.000Z,10.40
2022-11-23T09:48:58.546Z,11.20
2022-11-23T09:51:26.583Z,12.20
2022-11-23T09:53:57.873Z,13.80
2022-11-23T09:56:29.326Z,14.40
2022-11-23T09:59:00.253Z,14.00
2022-11-23T10:01:30.546Z,14.00
2022-11-23T10:04:00.333Z,14.40
2022-11-23T10:06:31.348Z,14.50
2022-11-23T10:09:13.468Z,15.00
2022-11-23T10:12:13.935Z,14.80
2022-11-23T10:14:55.918Z,14.30
2022-11-23T10:17:33.239Z,14.10
2022-11-23T10:20:20.121Z,13.70
2022-11-23T10:22:58.409Z,13.60
2022-11-23T10:25:28.776Z,13.40
2022-11-23T10:28:02.046Z,13.40
2022-11-23T10:30:30.185Z,13.70
2022-11-23T10:33:03.073Z,13.90
2022-11-23T10:35:36.321Z,13.40
2022-11-23T10:38:18.170Z,13.40
2022-11-23T10:41:01.334Z,13.40
2022-11-23T10:43:33.441Z,13.40
2022-11-23T10:46:33.014Z,12.60
2022-11-23T10:49:16.887Z,11.80
2022-11-23T10:51:55.180Z,11.70
2022-11-23T10:54:27.825Z,11.90
2022-11-23T10:56:57.523Z,12.00
2022-11-23T10:59:31.181Z,11.70
2022-11-23T11:02:17.848Z,11.40
2022-11-23T11:04:46.514Z,11.30
2022-11-23T11:07:24.164Z,11.60
2022-11-23T11:09:55.798Z,11.80
2022-11-23T11:12:24.556Z,11.70
2022-11-23T11:15:11.268Z,11.50
2022-11-23T11:17:41.947Z,11.20
2022-11-23T11:20:31.769Z,11.30
2022-11-23T11:23:03.983Z,11.30
2022-11-23T11:25:35.632Z,11.60
2022-11-23T11:28:05.644Z,12.20
2022-11-23T11:30:47.008Z,12.50
2022-11-23T11:33:22.770Z,12.30
2022-11-23T11:35:55.091Z,12.20
2022-11-23T11:38:29.749Z,12.50
2022-11-23T11:41:01.242Z,12.10
2022-11-23T11:43:39.846Z,11.90
2022-11-23T11:46:28.952Z,11.90
2022-11-23T11:49:05.890Z,12.20
2022-11-23T11:51:39.299Z,12.30
2022-11-23T11:54:17.844Z,12.20
2022-11-23T11:56:50.978Z,11.90
2022-11-23T11:59:26.035Z,11.50
2022-11-23T12:02:00.178Z,11.70
2022-11-23T12:04:36.716Z,12.00
2022-11-23T12:07:10.956Z,12.30
2022-11-23T12:09:45.215Z,12.30
2022-11-23T12:12:17.735Z,12.20
2022-11-23T12:14:48.439Z,12.50
2022-11-23T12:17:49.532Z,12.60
2022-11-23T12:20:25.414Z,12.70
2022-11-23T12:23:05.970Z,12.50
2022-11-23T12:25:39.007Z,11.60
2022-11-23T12:28:24.577Z,11.10
2022-11-23T12:31:03.729Z,11.00
2022-11-23T12:33:55.553Z,11.00
2022-11-23T12:36:36.863Z,11.00
2022-11-23T12:39:24.001Z,11.00
2022-11-23T12:41:57.662Z,11.20
2022-11-23T12:44:44.271Z,11.40
2022-11-23T12:47:23.839Z,11.40
2022-11-23T12:49:55.215Z,11.60
2022-11-23T12:52:39.555Z,11.30
2022-11-23T12:55:19.574Z,11.10
2022-11-23T12:57:57.512Z,11.00
2022-11-23T13:00:31.130Z,11.00
2022-11-23T13:04:01.940Z,11.20
2022-11-23T13:09:58.595Z,11.50
2022-11-23T13:12:44.728Z,11.70
2022-11-23T13:15:28.166Z,11.70
2022-11-23T13:18:05.290Z,11.70
2022-11-23T13:20:59.870Z,11.50
2022-11-23T13:23:28.009Z,11.40
2022-11-23T13:26:15.305Z,11.30
2022-11-23T13:28:44.089Z,11.10
2022-11-23T13:31:29.745Z,10.90
2022-11-23T13:33:59.553Z,10.80
2022-11-23T13:37:10.965Z,10.60
2022-11-23T13:40:06.664Z,10.50
2022-11-23T13:42:36.331Z,10.40
2022-11-23T13:45:26.790Z,10.40
2022-11-23T13:48:55.336Z,10.40
2022-11-23T13:51:07.772Z,10.30
2022-11-23T13:53:38.378Z,10.30
2022-11-23T13:56:24.922Z,10.30
2022-11-23T13:58:55.156Z,10.20
2022-11-23T14:02:01.788Z,10.10
2022-11-23T14:04:33.207Z,10.10
2022-11-23T14:07:06.740Z,10.10
2022-11-23T14:09:40.225Z,10.10
2022-11-23T14:12:17.137Z,9.80
2022-11-23T14:14:55.177Z,9.30
2022-11-23T14:18:01.568Z,9.00
2022-11-23T14:20:53.686Z,8.70
2022-11-23T14:23:47.996Z,8.50
2022-11-23T14:26:29.278Z,8.40
2022-11-23T14:29:15.396Z,8.20
2022-11-23T14:31:53.036Z,8.10
2022-11-23T14:34:31.758Z,7.90
2022-11-23T14:37:10.288Z,7.70
2022-11-23T14:39:59.365Z,7.60
2022-11-23T14:42:29.342Z,7.50
2022-11-23T14:45:01.653Z,7.40
2022-11-23T14:47:31.649Z,7.40
2022-11-23T14:49:59.967Z,7.40
2022-11-23T14:52:32.592Z,7.20
2022-11-23T14:55:05.456Z,7.20
2022-11-23T14:57:41.281Z,7.20
2022-11-23T15:00:26.917Z,7.20
2022-11-23T15:02:58.565Z,7.10
2022-11-23T15:05:30.648Z,7.10
2022-11-23T15:08:03.895Z,7.10
2022-11-23T15:10:40.265Z,7.10
2022-11-23T15:13:20.695Z,7.10
2022-11-23T15:15:55.045Z,7.10
2022-11-23T15:18:31.043Z,7.10
2022-11-23T15:21:02.014Z,7.10
2022-11-23T15:23:36.675Z,7.10
2022-11-23T15:26:07.439Z,7.20
2022-11-23T15:28:37.358Z,7.20
2022-11-23T15:31:28.475Z,7.20
2022-11-23T15:33:58.961Z,7.20
2022-11-23T15:36:30.514Z,7.20
2022-11-23T15:39:02.354Z,7.20
2022-11-23T15:41:31.665Z,7.20
2022-11-23T15:44:01.890Z,7.20
2022-11-23T15:46:37.048Z,7.20
2022-11-23T15:49:06.687Z,7.30
2022-11-23T15:51:40.184Z,7.30
2022-11-23T15:54:18.515Z,7.20
2022-11-23T15:56:49.692Z,7.20
2022-11-23T15:59:32.505Z,7.30
2022-11-23T16:02:01.773Z,7.30
2022-11-23T16:04:33.207Z,7.30
2022-11-23T16:07:16.927Z,7.30
2022-11-23T16:09:51.756Z,7.30
2022-11-23T16:12:27.274Z,7.30
2022-11-23T16:14:55.955Z,7.30
2022-11-23T16:17:25.482Z,7.30
2022-11-23T16:19:55.106Z,7.30
2022-11-23T16:22:30.167Z,7.30
2022-11-23T16:25:07.868Z,7.30
2022-11-23T16:27:37.097Z,7.30
2022-11-23T16:30:06.013Z,7.30
2022-11-23T16:32:33.961Z,7.30
2022-11-23T16:35:16.539Z,7.30
2022-11-23T16:37:44.536Z,7.30
2022-11-23T16:40:15.008Z,7.30
2022-11-23T16:42:42.981Z,7.30
2022-11-23T16:45:12.074Z,7.30
2022-11-23T16:47:53.513Z,7.30
2022-11-23T16:50:22.645Z,7.40
2022-11-23T16:52:50.723Z,7.40
2022-11-23T16:55:20.022Z,7.40
2022-11-23T16:57:48.613Z,7.40
2022-11-23T17:00:19.382Z,7.40
2022-11-23T17:02:47.559Z,7.40
2022-11-23T17:05:17.113Z,7.40
2022-11-23T17:07:47.904Z,7.40
2022-11-23T17:10:15.991Z,7.40
2022-11-23T17:12:50.480Z,7.50
2022-11-23T17:15:20.246Z,7.50
2022-11-23T17:17:48.141Z,7.50
2022-11-23T17:20:19.036Z,7.50
2022-11-23T17:22:51.351Z,7.50
2022-11-23T17:25:19.727Z,7.40
2022-11-23T17:27:49.321Z,7.40
2022-11-23T17:30:20.658Z,7.40
2022-11-23T17:32:49.519Z,7.40
2022-11-23T17:35:18.087Z,7.40
2022-11-23T17:37:47.033Z,7.30
2022-11-23T17:40:16.300Z,7.30
2022-11-23T17:42:44.617Z,7.40
2022-11-23T17:45:14.562Z,7.40
2022-11-23T17:47:44.672Z,7.40
2022-11-23T17:50:17.597Z,7.40
2022-11-23T17:52:45.649Z,7.30
2022-11-23T17:55:14.922Z,7.30
2022-11-23T17:57:43.068Z,7.30
2022-11-23T18:00:19.189Z,7.20
2022-11-23T18:02:47.556Z,7.20
2022-11-23T18:05:21.183Z,7.30
2022-11-23T18:07:49.819Z,7.30
2022-11-23T18:10:18.213Z,7.40
2022-11-23T18:12:46.203Z,7.50
2022-11-23T18:15:15.750Z,7.50
2022-11-23T18:17:44.084Z,7.60
2022-11-23T18:20:13.331Z,7.50
2022-11-23T18:22:41.294Z,7.60
2022-11-23T18:25:10.260Z,7.70
2022-11-23T18:27:38.147Z,7.60
2022-11-23T18:30:06.976Z,7.70
2022-11-23T18:32:36.399Z,7.70
2022-11-23T18:35:05.130Z,7.70
2022-11-23T18:37:33.052Z,7.80
2022-11-23T18:40:00.983Z,7.80
2022-11-23T18:42:28.882Z,7.80
2022-11-23T18:44:56.776Z,7.80
2022-11-23T18:47:25.086Z,7.70
2022-11-23T18:49:54.500Z,7.60
2022-11-23T18:52:22.848Z,7.60
2022-11-23T18:54:50.789Z,7.60
2022-11-23T18:57:18.946Z,7.60
2022-11-23T18:59:57.954Z,7.60
2022-11-23T19:02:26.195Z,7.60
2022-11-23T19:04:55.468Z,7.50
2022-11-23T19:07:27.372Z,7.40
2022-11-23T19:09:55.424Z,7.30
2022-11-23T19:12:23.653Z,7.20
2022-11-23T19:14:51.560Z,7.10
2022-11-23T19:17:19.576Z,6.90
2022-11-23T19:19:47.604Z,6.90
2022-11-23T19:22:16.870Z,6.80
2022-11-23T19:24:44.734Z,6.80
2022-11-23T19:27:12.751Z,6.70
2022-11-23T19:29:40.665Z,6.70
2022-11-23T19:32:08.755Z,6.70
2022-11-23T19:34:36.802Z,6.50
2022-11-23T19:37:04.685Z,6.40
2022-11-23T19:39:34.278Z,6.40
2022-11-23T19:42:03.257Z,6.50
2022-11-23T19:44:31.151Z,6.70
2022-11-23T19:46:59.118Z,6.90
2022-11-23T19:49:27.205Z,7.00
2022-11-23T19:51:56.323Z,7.20
2022-11-23T19:54:24.462Z,7.40
2022-11-23T19:56:53.729Z,7.40
2022-11-23T19:59:21.595Z,7.40
2022-11-23T20:01:49.522Z,7.50
2022-11-23T20:04:17.873Z,7.50
2022-11-23T20:06:45.941Z,7.40
2022-11-23T20:09:19.106Z,7.40
2022-11-23T20:11:50.588Z,7.40
2022-11-23T20:14:20.611Z,7.40
2022-11-23T20:16:48.776Z,7.40
2022-11-23T20:19:16.795Z,7.30
2022-11-23T20:21:44.753Z,7.40
2022-11-23T20:24:15.033Z,7.40
2022-11-23T20:26:43.331Z,7.40
2022-11-23T20:29:11.399Z,7.40
2022-11-23T20:31:40.720Z,7.30
2022-11-23T20:34:11.665Z,7.30
2022-11-23T20:36:42.356Z,7.30
2022-11-23T20:39:11.500Z,7.30
2022-11-23T20:41:39.987Z,7.40
2022-11-23T20:44:11.179Z,7.50
2022-11-23T20:49:30.008Z,7.50
2022-11-23T20:51:58.286Z,7.50
2022-11-23T20:54:26.206Z,7.40
2022-11-23T20:56:54.104Z,7.40
2022-11-23T20:59:23.747Z,7.40
2022-11-23T21:01:53.250Z,7.50
2022-11-23T21:04:21.131Z,7.50
2022-11-23T21:06:49.030Z,7.40
2022-11-23T21:09:17.370Z,7.50
2022-11-23T21:12:02.953Z,7.60
2022-11-23T21:14:32.925Z,7.60
2022-11-23T21:17:02.590Z,7.70
2022-11-23T21:19:31.793Z,7.90
2022-11-23T21:22:03.445Z,7.90
2022-11-23T21:24:31.890Z,8.00
2022-11-23T21:27:00.185Z,8.00
2022-11-23T21:29:28.276Z,8.00
2022-11-23T21:31:56.272Z,7.90
2022-11-23T21:34:26.820Z,8.00
2022-11-23T21:36:55.598Z,8.00
2022-11-23T21:39:24.513Z,8.00
2022-11-23T21:41:54.051Z,8.10
2022-11-23T21:44:24.357Z,8.10
2022-11-23T21:46:52.349Z,8.10
2022-11-23T21:49:20.398Z,8.10
2022-11-23T21:51:49.824Z,8.10
2022-11-23T21:54:17.655Z,8.10
2022-11-23T21:56:46.783Z,8.10
2022-11-23T21:59:15.093Z,8.00
2022-11-23T22:01:43.531Z,8.00
2022-11-23T22:04:13.553Z,8.10
2022-11-23T22:06:44.288Z,8.10
2022-11-23T22:09:14.397Z,8.00
2022-11-23T22:11:44.875Z,8.10
2022-11-23T22:14:14.454Z,8.00
2022-11-23T22:16:44.110Z,8.00
2022-11-23T22:19:13.091Z,8.00
2022-11-23T22:21:42.437Z,8.00
2022-11-23T22:24:14.551Z,8.00
2022-11-23T22:26:42.915Z,7.90
2022-11-23T22:29:11.244Z,7.90
2022-11-23T22:31:39.624Z,7.90
2022-11-23T22:34:09.572Z,7.90
2022-11-23T22:36:38.078Z,7.90
2022-11-23T22:39:07.526Z,7.80
2022-11-23T22:41:37.946Z,7.80
2022-11-23T22:44:08.078Z,7.70
2022-11-23T22:46:36.659Z,7.70
2022-11-23T22:49:04.988Z,7.70
2022-11-23T22:51:33.095Z,7.60
2022-11-23T22:54:01.758Z,7.60
2022-11-23T22:56:31.187Z,7.60
2022-11-23T22:59:00.572Z,7.60
2022-11-23T23:01:30.950Z,7.60
2022-11-23T23:04:00.607Z,7.60
2022-11-23T23:06:30.370Z,7.60
2022-11-23T23:09:00.195Z,7.60
2022-11-23T23:11:30.351Z,7.50
2022-11-23T23:14:00.218Z,7.40
2022-11-23T23:16:28.835Z,7.30
2022-11-23T23:18:57.527Z,7.20
2022-11-23T23:21:26.202Z,7.10
2022-11-23T23:23:56.337Z,7.10
2022-11-23T23:26:26.042Z,7.10
2022-11-23T23:28:55.368Z,7.20
2022-11-23T23:31:25.173Z,7.10
2022-11-23T23:33:54.519Z,7.00
2022-11-23T23:36:23.713Z,6.90
2022-11-23T23:38:52.512Z,6.90
2022-11-23T23:41:21.113Z,6.90
2022-11-23T23:43:49.040Z,6.90
2022-11-23T23:46:17.103Z,7.00
2022-11-23T23:48:46.742Z,7.10
2022-11-23T23:51:16.618Z,7.10
2022-11-23T23:53:45.585Z,7.10
2022-11-23T23:56:15.306Z,7.00
2022-11-23T23:58:43.328Z,7.00
